Latest Weather Observations for East Sale

IDV60801

Issued at 9:32 pm EDT Monday 16 January 2017 (issued every 30 minutes, with the page automatically refreshed every 10 minutes)

About weather observations | Map of weather stations | Latest weather observations for VIC | Other Formats
Station Details ID: 085072 Name: EAST SALE AIRPORT Lat: -38.12 Lon: 147.13 Height: 4.6 m
Data from the previous 72 hours. | See also: Recent months at East Sale
Date/Time
EDT
Temp
°C
App
Temp
°C
Dew
Point
°C
Rel
Hum
%
Delta-T
°C
Wind Press
QNH
hPa
Press
MSL
hPa
Rain since
9am
mm
Dir  Spd
km/h
Gust
km/h
Spd
kts
Gust
kts
16/09:00pm 18.5 16.8 14.8 79 2.2 E 17 19 9 10 1012.7 1012.7 0.0
16/08:30pm 18.9 16.7 14.4 75 2.6 E 19 22 10 12 1012.6 1012.6 0.0
16/08:00pm 19.4 16.5 14.0 71 3.1 E 22 30 12 16 1012.3 1012.3 0.0
16/07:30pm 19.8 16.4 13.7 68 3.5 E 24 30 13 16 1012.4 1012.4 0.0
16/07:00pm 20.7 17.0 13.9 65 3.9 E 26 32 14 17 1012.2 1012.2 0.0
16/06:30pm 21.6 17.9 14.0 62 4.4 E 26 33 14 18 1012.3 1012.3 0.0
16/06:00pm 21.9 17.8 13.8 60 4.7 E 28 33 15 18 1012.3 1012.3 0.0
16/05:30pm 21.9 18.2 13.8 60 4.7 E 26 32 14 17 1012.5 1012.5 0.0
16/05:00pm 22.6 19.3 13.9 58 5.1 ESE 24 30 13 16 1012.4 1012.4 0.0
16/04:30pm 23.5 19.7 14.8 58 5.2 ESE 28 35 15 19 1012.5 1012.5 0.0
16/04:00pm 24.7 21.1 15.3 56 5.7 ESE 28 35 15 19 1012.7 1012.7 0.0
16/03:30pm 25.7 21.9 14.8 51 6.5 ESE 28 35 15 19 1012.7 1012.7 0.0
16/03:00pm 25.5 22.0 13.4 47 7.1 ESE 24 30 13 16 1012.7 1012.7 0.0
16/02:30pm 25.3 21.8 13.5 48 6.9 E 24 30 13 16 1012.9 1012.9 0.0
16/02:00pm 25.9 25.2 13.1 45 7.5 NNE 9 13 5 7 1013.0 1013.0 0.0
16/01:30pm 26.2 25.0 11.5 40 8.4 ENE 9 13 5 7 1013.5 1013.5 0.0
16/01:00pm 24.7 24.0 12.0 45 7.2 WNW 7 13 4 7 1014.2 1014.2 0.0
16/12:30pm 23.0 21.4 11.7 49 6.4 SSW 11 19 6 10 1014.7 1014.7 0.0
16/12:00pm 21.9 20.6 12.5 55 5.3 WSW 11 15 6 8 1014.7 1014.7 0.0
16/11:30am 21.7 21.2 12.8 57 5.1 N 7 13 4 7 1015.3 1015.3 0.0
16/11:00am 20.7 20.1 12.4 59 4.7 SW 7 15 4 8 1015.6 1015.6 0.0
16/10:30am 19.3 18.7 11.6 61 4.2 NE 6 11 3 6 1015.9 1015.9 0.0
16/10:00am 18.8 18.1 12.1 65 3.7 WNW 7 11 4 6 1016.2 1016.2 0.0
16/09:30am 17.4 16.6 11.7 69 3.1 N 7 11 4 6 1016.5 1016.5 0.0
16/09:00am 16.5 15.9 11.6 73 2.7 N 6 9 3 5 1016.7 1016.7 0.0
16/08:30am 15.5 15.1 12.3 81 1.7 NW 6 7 3 4 1016.8 1016.8 0.0
16/08:00am 13.6 12.6 12.2 91 0.8 WNW 9 11 5 6 1016.8 1016.8 0.0
16/07:30am 11.9 10.1 11.0 94 0.5 WNW 11 13 6 7 1016.5 1016.5 0.0
16/07:00am 10.8 9.1 10.0 95 0.4 NW 9 11 5 6 1016.4 1016.4 0.0
16/06:30am 9.9 8.4 9.1 95 0.4 NNW 7 9 4 5 1016.1 1016.1 0.0
16/06:00am 9.8 7.5 9.0 95 0.4 NNW 11 11 6 6 1016.0 1016.0 0.0
16/05:30am 10.2 8.4 9.3 94 0.4 NNW 9 9 5 5 1015.8 1015.8 0.0
16/05:00am 11.2 9.6 10.1 93 0.6 NNW 9 9 5 5 1015.7 1015.7 0.0
16/04:30am 11.8 10.9 10.7 93 0.6 NW 6 6 3 3 1015.6 1015.6 0.0
16/04:00am 11.6 11.8 10.5 93 0.6 CALM 0 0 0 0 1015.6 1015.6 0.0
16/03:30am 11.5 11.7 10.4 93 0.6 CALM 0 0 0 0 1015.8 1015.8 0.0
16/03:00am 11.4 10.3 10.1 92 0.7 SW 6 7 3 4 1016.1 1016.1 0.0
16/02:30am 11.3 10.0 9.9 91 0.7 WNW 7 9 4 5 1016.2 1016.2 0.0
16/02:00am 12.5 11.2 11.2 92 0.7 WNW 9 11 5 6 1016.6 1016.6 0.0
16/01:30am 11.6 10.0 10.2 91 0.7 NNW 9 11 5 6 1016.9 1016.9 0.0
16/01:00am 12.0 11.0 10.2 89 0.9 NNE 6 9 3 5 1016.9 1016.9 0.0
16/12:30am 12.3 11.3 10.2 87 1.1 NNE 6 9 3 5 1017.2 1017.2 0.0
16/12:00am 12.8 10.9 10.5 86 1.2 NE 11 13 6 7 1017.1 1017.1 0.0
 
Date/Time
EDT
Temp
°C
App
Temp
°C
Dew
Point
°C
Rel
Hum
%
Delta-T
°C
Wind Press
QNH
hPa
Press
MSL
hPa
Rain since
9am
mm
Dir  Spd
km/h
Gust
km/h
Spd
kts
Gust
kts
15/11:30pm 13.5 12.2 11.2 86 1.2 NNE 9 13 5 7 1017.3 1017.3 0.0
15/11:00pm 13.8 12.1 11.1 84 1.4 NNE 11 13 6 7 1017.5 1017.5 0.0
15/10:30pm 14.2 12.1 11.2 82 1.6 NE 13 15 7 8 1017.8 1017.8 0.0
15/10:00pm 14.8 13.2 11.4 80 1.8 NNE 11 15 6 8 1017.7 1017.7 0.0
15/09:30pm 15.8 13.1 11.8 77 2.2 NNE 17 22 9 12 1017.5 1017.5 0.0
15/09:00pm 16.7 13.5 12.0 74 2.6 NNE 20 26 11 14 1017.3 1017.3 0.0
15/08:30pm 17.9 15.3 12.1 69 3.2 NNE 17 22 9 12 1017.3 1017.3 0.0
15/08:00pm 19.4 17.3 11.2 59 4.5 NE 13 17 7 9 1016.9 1016.9 0.0
15/07:30pm 20.2 17.3 11.1 56 5.0 E 17 20 9 11 1016.6 1016.6 0.0
15/07:00pm 20.8 17.1 11.4 55 5.2 E 22 30 12 16 1016.4 1016.4 0.0
15/06:30pm 22.1 17.5 11.2 50 6.0 E 26 35 14 19 1016.0 1016.0 0.0
15/06:00pm 22.9 18.7 11.0 47 6.6 E 24 35 13 19 1015.8 1015.8 0.0
15/05:30pm 22.7 19.8 11.1 48 6.4 ESE 17 24 9 13 1015.6 1015.6 0.0
15/05:00pm 23.3 20.4 11.0 46 6.8 E 17 24 9 13 1015.7 1015.7 0.0
15/04:30pm 24.8 21.5 11.0 42 7.7 E 19 26 10 14 1015.9 1015.9 0.0
15/04:00pm 24.1 21.7 8.5 37 8.3 SSE 11 17 6 9 1016.2 1016.2 0.0
15/03:30pm 24.0 20.5 8.8 38 8.2 W 17 26 9 14 1016.2 1016.2 0.0
15/03:00pm 23.5 20.5 9.1 40 7.7 WSW 15 28 8 15 1016.5 1016.5 0.0
15/02:30pm 22.7 19.0 9.5 43 7.1 SW 19 30 10 16 1016.7 1016.7 0.0
15/02:00pm 22.4 18.7 9.6 44 6.9 WSW 19 32 10 17 1017.1 1017.1 0.0
15/01:30pm 21.9 18.3 10.4 48 6.3 WSW 20 32 11 17 1017.3 1017.3 0.0
15/01:00pm 20.5 16.6 9.4 49 5.9 WSW 20 35 11 19 1017.5 1017.5 0.0
15/12:30pm 19.8 15.2 9.7 52 5.4 SW 24 35 13 19 1017.6 1017.6 0.0
15/12:00pm 19.6 15.0 9.5 52 5.3 WSW 24 35 13 19 1017.8 1017.8 0.0
15/11:30am 18.7 14.2 8.7 52 5.2 W 22 32 12 17 1018.2 1018.2 0.0
15/11:00am 18.1 13.5 8.1 52 5.1 W 22 37 12 20 1018.2 1018.2 0.0
15/10:30am 18.1 13.3 8.7 54 4.9 W 24 35 13 19 1018.1 1018.1 0.0
15/10:00am 17.4 12.5 8.3 55 4.6 W 24 32 13 17 1018.1 1018.1 0.0
15/09:30am 16.7 11.8 8.4 58 4.2 W 24 39 13 21 1018.1 1018.1 0.0
15/09:00am 16.4 12.2 8.4 59 4.1 W 20 28 11 15 1018.1 1018.1 0.0
15/08:30am 16.2 13.4 8.7 61 3.8 W 13 20 7 11 1017.9 1017.9 0.0
15/08:00am 15.5 12.4 8.7 64 3.5 W 15 19 8 10 1017.8 1017.8 0.0
15/07:30am 14.6 11.5 9.0 69 2.9 W 15 20 8 11 1017.7 1017.7 0.0
15/07:00am 13.8 11.6 9.3 74 2.3 WNW 11 13 6 7 1017.1 1017.1 0.0
15/06:30am 12.7 10.5 7.8 72 2.4 NW 9 11 5 6 1016.8 1016.8 0.0
15/06:00am 13.8 11.3 8.2 69 2.8 NW 11 13 6 7 1016.7 1016.7 0.0
15/05:30am 14.2 11.7 8.4 68 2.9 NW 11 13 6 7 1016.4 1016.4 0.0
15/05:00am 14.1 12.0 8.3 68 2.9 WSW 9 13 5 7 1016.0 1016.0 0.0
15/04:30am 14.3 11.8 8.0 66 3.1 WSW 11 13 6 7 1015.6 1015.6 0.0
15/04:00am 14.7 12.2 8.0 64 3.3 WNW 11 15 6 8 1015.4 1015.4 0.0
15/03:30am 14.6 12.0 7.9 64 3.3 W 11 19 6 10 1015.5 1015.5 0.0
15/03:00am 14.7 10.6 8.0 64 3.3 WSW 19 28 10 15 1015.5 1015.5 0.0
15/02:30am 14.7 10.2 8.4 66 3.2 WSW 22 30 12 16 1015.3 1015.3 0.0
15/02:00am 14.4 10.4 9.0 70 2.7 W 20 30 11 16 1015.3 1015.3 0.0
15/01:30am 14.0 9.9 8.6 70 2.7 WSW 20 26 11 14 1015.5 1015.5 0.0
15/01:00am 14.8 10.4 9.0 68 3.0 W 22 32 12 17 1015.6 1015.6 0.0
15/12:30am 14.7 10.8 9.3 70 2.8 W 20 35 11 19 1015.6 1015.6 0.0
15/12:00am 14.9 10.3 9.5 70 2.8 W 24 35 13 19 1015.2 1015.2 0.0
 
Date/Time
EDT
Temp
°C
App
Temp
°C
Dew
Point
°C
Rel
Hum
%
Delta-T
°C
Wind Press
QNH
hPa
Press
MSL
hPa
Rain since
9am
mm
Dir  Spd
km/h
Gust
km/h
Spd
kts
Gust
kts
14/11:30pm 15.1 9.6 9.2 68 3.0 WSW 28 39 15 21 1014.9 1014.9 0.0
14/11:00pm 15.5 10.3 9.0 65 3.3 W 26 37 14 20 1014.6 1014.6 0.0
14/10:30pm 15.9 10.3 8.9 63 3.6 WSW 28 43 15 23 1014.4 1014.4 0.0
14/10:00pm 16.3 10.4 9.0 62 3.8 WSW 30 43 16 23 1013.7 1013.7 0.0
14/09:30pm 16.9 11.1 9.3 61 3.9 WSW 30 41 16 22 1013.3 1013.3 0.0
14/09:00pm 17.2 11.1 9.9 62 3.8 WSW 32 46 17 25 1012.7 1012.7 0.0
14/08:43pm 17.7 11.7 10.1 61 4.0 WSW 32 50 17 27 1012.4 1012.4 0.0
14/08:30pm 18.0 11.9 10.4 61 4.1 WSW 33 48 18 26 1012.1 1012.1 0.0
14/08:00pm 18.7 12.6 10.5 59 4.4 WSW 33 48 18 26 1011.3 1011.3 0.0
14/07:30pm 19.5 13.9 10.0 54 5.1 WSW 30 54 16 29 1010.7 1010.7 0.0
14/07:08pm 20.3 13.5 10.7 54 5.2 WSW 37 56 20 30 1010.1 1010.1 0.0
14/07:00pm 20.3 13.8 10.4 53 5.4 WSW 35 52 19 28 1009.8 1009.8 0.0
14/06:30pm 20.8 14.4 10.6 52 5.6 W 35 65 19 35 1009.0 1009.0 0.0
14/06:00pm 21.6 14.0 10.4 49 6.1 W 41 59 22 32 1008.6 1008.6 0.0
14/05:35pm 22.4 14.5 10.9 48 6.4 W 43 67 23 36 1008.4 1008.4 0.0
14/05:30pm 22.3 15.0 11.4 50 6.1 W 41 56 22 30 1008.4 1008.4 0.0
14/05:00pm 22.0 14.4 10.5 48 6.3 W 41 59 22 32 1008.2 1008.2 0.0
14/04:31pm 22.2 14.1 10.7 48 6.3 W 44 63 24 34 1008.2 1008.2 0.0
14/04:30pm 22.2 13.8 11.0 49 6.2 W 46 63 25 34 1008.2 1008.2 0.0
14/04:03pm 22.7 14.2 10.8 47 6.6 W 46 65 25 35 1008.0 1008.0 0.0
14/04:00pm 22.3 13.4 10.5 47 6.5 W 48 65 26 35 1007.9 1007.9 0.0
14/03:36pm 21.3 13.2 10.2 49 6.0 W 43 61 23 33 1008.2 1008.2 0.0
14/03:30pm 21.0 11.9 9.9 49 6.0 W 48 63 26 34 1008.2 1008.2 0.0
14/03:04pm 22.4 14.5 10.9 48 6.4 W 43 61 23 33 1008.0 1008.0 0.0
14/03:00pm 21.8 13.6 10.3 48 6.3 W 44 57 24 31 1007.9 1007.9 0.0
14/02:30pm 20.3 11.1 9.5 50 5.8 W 48 72 26 39 1007.6 1007.6 0.0
14/02:00pm 20.7 12.2 10.8 53 5.4 W 46 67 25 36 1007.4 1007.4 0.0
14/01:30pm 20.5 10.7 8.8 47 6.2 W 50 69 27 37 1007.2 1007.2 0.0
14/01:00pm 20.2 10.2 9.5 50 5.7 W 52 70 28 38 1007.0 1007.0 0.0
14/12:30pm 21.1 12.3 9.4 47 6.2 WNW 46 67 25 36 1006.6 1006.6 0.0
14/12:00pm 18.4 9.6 9.7 57 4.6 W 46 69 25 37 1006.9 1006.9 0.0
14/11:30am 19.0 10.9 8.6 51 5.4 W 41 59 22 32 1006.4 1006.4 0.0
14/11:24am 18.9 10.7 8.0 49 5.6 W 41 59 22 32 1006.3 1006.3 0.0
14/11:00am 19.3 11.6 8.6 50 5.6 W 39 56 21 30 1006.2 1006.2 0.0
14/10:45am 20.2 12.1 8.8 48 6.0 W 41 59 22 32 1006.3 1006.3 0.0
14/10:30am 18.8 9.6 8.2 50 5.5 WNW 46 59 25 32 1006.1 1006.1 0.0
14/10:00am 18.9 8.9 8.0 49 5.6 W 50 72 27 39 1006.0 1006.0 0.0
14/09:30am 18.2 9.6 8.2 52 5.1 W 43 61 23 33 1005.9 1005.9 0.0
14/09:00am 17.8 9.6 8.1 53 5.0 W 41 61 22 33 1005.7 1005.7 2.0
14/08:47am 18.5 10.9 7.6 49 5.5 W 37 56 20 30 1005.6 1005.6 2.0
14/08:30am 18.7 11.2 7.8 49 5.6 WNW 37 50 20 27 1005.5 1005.5 2.0
14/08:07am 17.7 9.8 8.0 53 4.9 WNW 39 59 21 32 1005.3 1005.3 2.0
14/08:00am 17.4 9.1 7.7 53 4.9 WNW 41 52 22 28 1005.3 1005.3 2.0
14/07:30am 17.3 10.1 7.6 53 4.9 WNW 35 46 19 25 1004.9 1004.9 2.0
14/07:00am 16.0 10.5 7.7 58 4.2 WNW 26 35 14 19 1004.6 1004.6 2.0
14/06:30am 15.8 8.3 8.1 60 3.9 WNW 37 46 20 25 1004.0 1004.0 2.0
14/06:00am 16.0 7.9 8.5 61 3.8 WNW 41 63 22 34 1003.7 1003.7 2.0
14/05:54am 16.0 7.9 8.5 61 3.8 W 41 63 22 34 1003.7 1003.7 2.0
14/05:30am 16.5 10.0 9.0 61 3.9 W 33 48 18 26 1003.3 1003.3 2.0
14/05:00am 16.4 10.3 9.6 64 3.6 W 32 46 17 25 1002.9 1002.9 2.0
14/04:30am 16.2 10.7 10.7 70 2.9 WSW 30 39 16 21 1002.7 1002.7 2.0
14/04:00am 16.6 10.5 10.5 67 3.3 WSW 33 46 18 25 1002.2 1002.2 2.0
14/03:30am 16.6 10.8 10.7 68 3.1 WSW 32 48 17 26 1001.7 1001.7 2.0
14/03:01am 16.8 10.8 10.9 68 3.2 WSW 33 52 18 28 1001.5 1001.5 2.0
14/03:00am 16.8 10.5 10.9 68 3.2 WSW 35 50 19 27 1001.5 1001.5 2.0
14/02:48am 16.6 10.6 10.9 69 3.1 WSW 33 52 18 28 1001.4 1001.4 2.0
14/02:30am 16.8 11.3 10.6 67 3.3 WSW 30 46 16 25 1001.5 1001.5 2.0
14/02:00am 17.0 13.9 10.4 65 3.5 W 17 30 9 16 1001.9 1001.9 2.0
14/01:30am 17.2 15.4 10.8 66 3.4 WNW 11 17 6 9 1002.1 1002.1 2.0
14/01:00am 17.2 14.1 11.5 69 3.1 W 19 30 10 16 1002.0 1002.0 2.0
14/12:30am 17.1 14.1 12.0 72 2.8 WSW 19 28 10 15 1002.1 1002.1 2.0
14/12:00am 16.9 14.4 12.2 74 2.6 WSW 17 22 9 12 1002.3 1002.3 2.0
 
Date/Time
EDT
Temp
°C
App
Temp
°C
Dew
Point
°C
Rel
Hum
%
Delta-T
°C
Wind Press
QNH
hPa
Press
MSL
hPa
Rain since
9am
mm
Dir  Spd
km/h
Gust
km/h
Spd
kts
Gust
kts
13/11:30pm 16.7 14.9 12.0 74 2.6 WNW 13 22 7 12 1002.4 1002.4 2.0
13/11:00pm 16.6 14.6 11.5 72 2.8 WSW 13 17 7 9 1002.2 1002.2 2.0
13/10:30pm 17.4 14.8 12.1 71 2.9 WSW 17 24 9 13 1002.2 1002.2 2.0
13/10:00pm 17.8 13.5 12.0 69 3.2 WSW 26 37 14 20 1001.8 1001.8 2.0

Other Formats:

Comma delimited format used in spreadsheet applications
http://www.bom.gov.au/fwo/IDV60801/IDV60801.94907.axf

JavaScript Object Notation format (JSON) in row-major order
http://www.bom.gov.au/fwo/IDV60801/IDV60801.94907.json